createdAt,value
2018-02-19T00:00:59.029Z,74.50
2018-02-19T00:03:34.579Z,73.40
2018-02-19T00:06:14.231Z,73.40
2018-02-19T00:11:24.244Z,72.90
2018-02-19T00:14:05.992Z,73.00
2018-02-19T00:16:51.645Z,72.60
2018-02-19T00:19:31.563Z,72.80
2018-02-19T00:22:23.119Z,73.10
2018-02-19T00:24:50.707Z,73.00
2018-02-19T00:27:24.601Z,72.90
2018-02-19T00:29:54.424Z,72.90
2018-02-19T00:32:29.125Z,72.80
2018-02-19T00:37:41.744Z,73.10
2018-02-19T00:40:10.164Z,73.80
2018-02-19T00:42:47.847Z,72.70
2018-02-19T00:45:16.520Z,72.90
2018-02-19T00:47:53.566Z,73.80
2018-02-19T00:53:00.674Z,73.60
2018-02-19T00:59:49.912Z,74.30
2018-02-19T01:02:29.346Z,75.20
2018-02-19T01:04:57.690Z,74.60
2018-02-19T01:07:33.617Z,74.20
2018-02-19T01:10:01.203Z,74.20
2018-02-19T01:12:36.815Z,74.10
2018-02-19T01:15:04.395Z,74.00
2018-02-19T01:17:47.347Z,73.80
2018-02-19T01:20:28.108Z,73.80
2018-02-19T01:23:09.911Z,73.30
2018-02-19T01:25:56.942Z,73.80
2018-02-19T01:28:34.410Z,73.20
2018-02-19T01:34:30.529Z,73.10
2018-02-19T01:40:10.856Z,73.30
2018-02-19T01:42:55.795Z,72.30
2018-02-19T01:52:00.918Z,73.80
2018-02-19T04:22:39.348Z,73.80
2018-02-19T04:25:42.149Z,71.10
2018-02-19T04:28:21.942Z,71.00
2018-02-19T04:31:06.139Z,70.20
2018-02-19T04:43:57.238Z,70.70
2018-02-19T04:46:42.393Z,70.90
2018-02-19T04:49:21.361Z,71.40
2018-02-19T04:52:02.478Z,70.30
2018-02-19T04:54:45.988Z,70.30
2018-02-19T05:03:15.877Z,70.60
2018-02-19T05:05:54.914Z,70.60
2018-02-19T05:08:38.193Z,70.90
2018-02-19T05:35:17.261Z,72.70
2018-02-19T05:37:49.188Z,71.50
2018-02-19T05:40:17.477Z,70.90
2018-02-19T05:42:48.825Z,70.60
2018-02-19T05:45:17.257Z,70.30
2018-02-19T05:47:45.854Z,70.60
2018-02-19T05:50:24.040Z,70.80
2018-02-19T05:52:53.428Z,70.80
2018-02-19T05:55:22.292Z,70.80
2018-02-19T05:57:51.202Z,72.90
2018-02-19T06:00:29.562Z,70.80
2018-02-19T06:03:08.513Z,71.40
2018-02-19T06:05:36.388Z,70.70
2018-02-19T06:08:12.822Z,70.60
2018-02-19T06:10:41.819Z,70.60
2018-02-19T06:13:09.332Z,70.70
2018-02-19T06:15:37.663Z,70.50
2018-02-19T06:18:05.610Z,70.40
2018-02-19T06:20:34.690Z,71.20
2018-02-19T06:23:03.441Z,72.20
2018-02-19T06:25:31.346Z,70.70
2018-02-19T06:27:59.286Z,70.80
2018-02-19T06:30:30.555Z,70.60
2018-02-19T06:32:58.750Z,70.70
2018-02-19T06:35:26.633Z,70.60
2018-02-19T06:37:55.502Z,70.70
2018-02-19T06:40:23.765Z,70.40
2018-02-19T06:42:59.107Z,71.20
2018-02-19T06:45:27.402Z,70.90
2018-02-19T06:47:55.031Z,71.00
2018-02-19T06:50:22.673Z,70.90
2018-02-19T06:52:50.279Z,70.80
2018-02-19T06:55:18.661Z,70.70
2018-02-19T06:57:49.192Z,71.50
2018-02-19T07:00:19.458Z,71.70
2018-02-19T07:02:47.112Z,71.30
2018-02-19T07:05:14.781Z,71.30
2018-02-19T07:07:42.327Z,71.10
2018-02-19T07:10:10.030Z,70.60
2018-02-19T07:12:38.126Z,70.70
2018-02-19T07:15:05.674Z,70.60
2018-02-19T07:17:33.663Z,70.60
2018-02-19T07:20:01.995Z,71.50
2018-02-19T07:22:33.793Z,70.60
2018-02-19T07:25:01.353Z,70.70
2018-02-19T07:27:29.681Z,71.30
2018-02-19T07:29:59.081Z,71.70
2018-02-19T07:32:29.064Z,71.00
2018-02-19T07:34:57.444Z,71.50
2018-02-19T07:37:30.211Z,71.20
2018-02-19T07:39:58.597Z,71.00
2018-02-19T07:42:26.943Z,71.60
2018-02-19T07:45:00.487Z,70.90
2018-02-19T07:50:05.184Z,70.90
2018-02-19T07:52:34.575Z,70.80
2018-02-19T07:55:04.214Z,70.80
2018-02-19T07:57:31.835Z,70.90
2018-02-19T08:00:02.687Z,70.90
2018-02-19T08:05:04.679Z,70.40
2018-02-19T08:07:32.635Z,70.20
2018-02-19T08:10:02.898Z,70.50
2018-02-19T08:12:34.888Z,75.70
2018-02-19T08:15:02.372Z,74.20
2018-02-19T08:17:30.860Z,65.70
2018-02-19T08:19:58.447Z,62.40
2018-02-19T08:22:26.826Z,62.50
2018-02-19T08:24:54.369Z,62.20
2018-02-19T08:27:22.490Z,63.20
2018-02-19T08:29:50.051Z,64.10
2018-02-19T08:32:18.638Z,65.70
2018-02-19T08:34:48.936Z,65.40
2018-02-19T08:37:17.240Z,65.10
2018-02-19T08:39:46.169Z,65.00
2018-02-19T08:42:15.950Z,65.90
2018-02-19T08:44:47.450Z,66.60
2018-02-19T08:47:15.872Z,67.60
2018-02-19T08:49:45.579Z,67.80
2018-02-19T08:52:15.928Z,88.20
2018-02-19T08:54:43.885Z,66.80
2018-02-19T08:57:14.660Z,66.90
2018-02-19T08:59:43.028Z,67.10
2018-02-19T09:02:12.215Z,67.20
2018-02-19T09:04:40.622Z,66.70
2018-02-19T09:07:09.019Z,66.90
2018-02-19T09:09:40.531Z,67.50
2018-02-19T09:12:10.151Z,67.80
2018-02-19T09:14:39.839Z,68.00
2018-02-19T09:17:09.356Z,67.20
2018-02-19T09:19:37.294Z,67.10
2018-02-19T09:22:05.003Z,69.20
2018-02-19T09:24:33.802Z,68.30
2018-02-19T09:27:02.098Z,67.90
2018-02-19T09:29:31.213Z,68.10
2018-02-19T09:32:00.526Z,68.40
2018-02-19T09:34:29.231Z,68.40
2018-02-19T09:36:56.802Z,67.40
2018-02-19T09:39:24.495Z,66.40
2018-02-19T09:41:53.389Z,66.80
2018-02-19T09:44:23.688Z,66.20
2018-02-19T09:46:53.588Z,66.10
2018-02-19T09:49:22.863Z,65.70
2018-02-19T09:51:50.519Z,65.60
2018-02-19T09:54:18.496Z,79.30
2018-02-19T09:56:46.046Z,75.20
2018-02-19T09:59:14.157Z,65.50
2018-02-19T10:01:42.629Z,57.70
2018-02-19T10:04:10.607Z,54.30
2018-02-19T10:06:41.468Z,50.30
2018-02-19T10:09:09.054Z,47.90
2018-02-19T10:11:45.198Z,63.60
2018-02-19T10:14:14.363Z,49.50
2018-02-19T10:16:44.533Z,52.80
2018-02-19T10:19:14.126Z,53.20
2018-02-19T10:21:43.060Z,54.70
2018-02-19T10:24:11.241Z,55.70
2018-02-19T10:26:42.633Z,57.10
2018-02-19T10:29:10.278Z,57.00
2018-02-19T10:31:38.165Z,58.10
2018-02-19T10:34:07.027Z,57.50
2018-02-19T10:36:37.012Z,58.80
2018-02-19T10:39:05.267Z,58.90
2018-02-19T10:41:35.246Z,59.70
2018-02-19T10:44:04.234Z,60.50
2018-02-19T10:46:32.795Z,61.20
2018-02-19T10:49:04.396Z,63.20
2018-02-19T10:51:34.136Z,62.80
2018-02-19T10:54:02.025Z,62.90
2018-02-19T10:56:31.021Z,63.40
2018-02-19T10:59:02.176Z,63.00
2018-02-19T11:01:30.528Z,62.30
2018-02-19T11:03:59.739Z,61.60
2018-02-19T11:06:30.014Z,62.60
2018-02-19T11:08:58.538Z,61.70
2018-02-19T11:11:28.302Z,61.70
2018-02-19T11:13:58.799Z,61.70
2018-02-19T11:16:27.877Z,62.20
2018-02-19T11:18:55.458Z,62.40
2018-02-19T11:21:23.794Z,61.60
2018-02-19T11:23:51.801Z,65.70
2018-02-19T11:26:20.456Z,62.60
2018-02-19T11:28:48.615Z,89.20
2018-02-19T11:31:16.869Z,62.40
2018-02-19T11:33:44.673Z,62.60
2018-02-19T11:36:13.757Z,62.60
2018-02-19T11:38:41.304Z,62.80
2018-02-19T11:41:09.245Z,62.20
2018-02-19T11:43:37.461Z,62.20
2018-02-19T11:46:05.934Z,61.00
2018-02-19T11:48:33.464Z,60.70
2018-02-19T11:51:02.040Z,61.10
2018-02-19T11:53:33.484Z,60.30
2018-02-19T11:56:01.037Z,59.00
2018-02-19T11:58:29.840Z,58.50
2018-02-19T12:00:59.996Z,58.30
2018-02-19T12:03:28.994Z,58.80
2018-02-19T12:05:56.625Z,59.20
2018-02-19T12:08:27.447Z,59.70
2018-02-19T12:10:56.235Z,59.70
2018-02-19T12:13:26.169Z,59.40
2018-02-19T12:15:56.840Z,58.70
2018-02-19T12:18:24.457Z,59.40
2018-02-19T12:20:52.266Z,59.60
2018-02-19T12:23:30.066Z,59.80
2018-02-19T12:25:58.354Z,59.90
2018-02-19T12:28:26.509Z,59.10
2018-02-19T12:30:55.248Z,59.40
2018-02-19T12:33:25.382Z,59.50
2018-02-19T12:35:56.161Z,59.60
2018-02-19T12:38:31.708Z,59.50
2018-02-19T12:41:01.692Z,58.90
2018-02-19T12:43:31.779Z,59.30
2018-02-19T12:46:01.129Z,60.20
2018-02-19T12:48:31.307Z,59.00
2018-02-19T12:51:00.304Z,59.00
2018-02-19T12:53:28.732Z,59.10
2018-02-19T12:55:56.301Z,58.90
2018-02-19T12:58:25.223Z,59.70
2018-02-19T13:00:52.949Z,59.50
2018-02-19T13:03:21.321Z,60.10
2018-02-19T13:05:49.943Z,59.20
2018-02-19T13:08:17.635Z,59.20
2018-02-19T13:10:46.124Z,59.00
2018-02-19T13:13:13.713Z,59.10
2018-02-19T13:15:42.024Z,59.80
2018-02-19T13:18:09.597Z,59.40
2018-02-19T13:20:37.627Z,59.40
2018-02-19T13:23:05.219Z,59.40
2018-02-19T13:25:32.816Z,59.70
2018-02-19T13:28:00.359Z,60.50
2018-02-19T13:30:28.759Z,59.60
2018-02-19T13:32:57.096Z,59.60
2018-02-19T13:35:24.689Z,59.40
2018-02-19T13:37:52.230Z,59.90
2018-02-19T13:40:19.794Z,60.90
2018-02-19T13:42:47.395Z,60.90
2018-02-19T13:45:15.364Z,60.30
2018-02-19T13:47:43.374Z,60.10
2018-02-19T13:50:11.718Z,60.30
2018-02-19T13:52:39.252Z,81.40
2018-02-19T13:55:06.796Z,61.30
2018-02-19T13:57:34.313Z,61.70
2018-02-19T14:00:02.273Z,62.10
2018-02-19T14:02:30.601Z,63.00
2018-02-19T14:04:58.610Z,61.10
2018-02-19T14:07:26.204Z,60.60
2018-02-19T14:09:53.824Z,60.60
2018-02-19T14:12:21.773Z,60.40
2018-02-19T14:14:50.108Z,59.60
2018-02-19T14:17:17.738Z,59.30
2018-02-19T14:19:45.344Z,59.60
2018-02-19T14:22:13.702Z,59.90
2018-02-19T14:24:41.298Z,59.20
2018-02-19T14:27:09.709Z,59.40
2018-02-19T14:29:37.312Z,58.80
2018-02-19T14:32:04.899Z,59.10
2018-02-19T14:34:32.459Z,58.90
2018-02-19T14:37:00.782Z,59.10
2018-02-19T14:39:28.460Z,58.40
2018-02-19T14:41:56.027Z,59.20
2018-02-19T14:44:23.552Z,57.70
2018-02-19T14:46:51.868Z,59.90
2018-02-19T14:49:20.631Z,60.40
2018-02-19T14:51:49.433Z,58.30
2018-02-19T14:54:17.011Z,72.50
2018-02-19T14:56:44.989Z,58.40
2018-02-19T14:59:13.342Z,58.90
2018-02-19T15:01:40.951Z,58.40
2018-02-19T15:04:09.240Z,59.50
2018-02-19T15:06:36.817Z,58.60
2018-02-19T15:09:05.137Z,59.50
2018-02-19T15:11:32.696Z,58.60
2018-02-19T15:14:01.052Z,58.70
2018-02-19T15:16:28.705Z,57.40
2018-02-19T15:18:56.288Z,58.10
2018-02-19T15:21:23.862Z,58.80
2018-02-19T15:23:51.409Z,58.80
2018-02-19T15:26:18.981Z,58.90
2018-02-19T15:28:46.562Z,59.30
2018-02-19T15:31:14.123Z,59.50
2018-02-19T15:33:41.637Z,59.50
2018-02-19T15:36:09.245Z,59.20
2018-02-19T15:38:36.760Z,59.20
2018-02-19T15:41:04.385Z,59.20
2018-02-19T15:43:31.975Z,59.40
2018-02-19T15:45:59.551Z,67.30
2018-02-19T15:48:27.142Z,59.50
2018-02-19T15:50:55.460Z,59.80
2018-02-19T15:53:23.021Z,59.50
2018-02-19T15:55:50.995Z,60.30
2018-02-19T15:58:18.601Z,60.70
2018-02-19T16:00:46.911Z,62.20
2018-02-19T16:03:14.551Z,63.70
2018-02-19T16:05:43.134Z,61.10
2018-02-19T16:08:11.173Z,60.80
2018-02-19T16:10:38.838Z,61.50
2018-02-19T16:13:07.177Z,62.10
2018-02-19T16:15:34.741Z,60.30
2018-02-19T16:18:02.300Z,59.60
2018-02-19T16:20:29.869Z,59.70
2018-02-19T16:22:57.844Z,60.00
2018-02-19T16:25:25.402Z,60.40
2018-02-19T16:27:53.653Z,60.60
2018-02-19T16:30:23.116Z,60.20
2018-02-19T16:32:51.051Z,60.50
2018-02-19T16:35:19.159Z,60.80
2018-02-19T16:37:48.246Z,61.20
2018-02-19T16:40:18.157Z,60.40
2018-02-19T16:42:47.494Z,60.60
2018-02-19T16:45:16.239Z,60.90
2018-02-19T16:47:43.809Z,61.00
2018-02-19T16:50:13.759Z,61.60
2018-02-19T16:52:43.967Z,61.70
2018-02-19T16:55:12.011Z,61.90
2018-02-19T16:57:39.610Z,61.90
2018-02-19T17:00:10.047Z,62.20
2018-02-19T17:02:37.564Z,90.20
2018-02-19T17:05:07.083Z,63.40
2018-02-19T17:07:35.325Z,62.90
2018-02-19T17:10:02.838Z,62.70
2018-02-19T17:12:31.273Z,61.90
2018-02-19T17:14:59.193Z,61.90
2018-02-19T17:17:27.855Z,62.40
2018-02-19T17:19:55.789Z,62.40
2018-02-19T17:22:25.323Z,62.70
2018-02-19T17:24:52.880Z,62.20
2018-02-19T17:27:21.804Z,62.30
2018-02-19T17:29:49.992Z,62.40
2018-02-19T17:32:17.515Z,63.00
2018-02-19T17:34:45.788Z,62.40
2018-02-19T17:37:13.377Z,61.90
2018-02-19T17:39:43.322Z,61.70
2018-02-19T17:42:10.958Z,62.00
2018-02-19T17:44:38.523Z,62.60
2018-02-19T17:47:06.137Z,62.60
2018-02-19T17:49:36.129Z,62.60
2018-02-19T17:52:05.004Z,63.70
2018-02-19T17:54:34.281Z,63.40
2018-02-19T17:57:02.222Z,63.70
2018-02-19T17:59:31.898Z,64.50
2018-02-19T18:02:05.942Z,64.00
2018-02-19T18:04:35.804Z,63.60
2018-02-19T18:07:03.762Z,63.70
2018-02-19T18:09:32.091Z,63.60
2018-02-19T18:12:00.354Z,63.40
2018-02-19T18:14:28.342Z,63.20
2018-02-19T18:16:57.516Z,63.10
2018-02-19T18:19:25.896Z,64.10
2018-02-19T18:21:53.498Z,63.00
2018-02-19T18:24:21.106Z,63.00
2018-02-19T18:26:49.615Z,63.90
2018-02-19T18:29:19.003Z,64.30
2018-02-19T18:31:46.572Z,65.00
2018-02-19T18:34:14.185Z,65.20
2018-02-19T18:36:41.762Z,65.00
2018-02-19T18:39:10.719Z,65.50
2018-02-19T18:41:41.872Z,66.40
2018-02-19T18:44:10.273Z,65.40
2018-02-19T18:46:39.451Z,66.30
2018-02-19T18:49:07.064Z,65.00
2018-02-19T18:51:35.514Z,64.80
2018-02-19T18:54:03.844Z,65.40
2018-02-19T18:56:32.342Z,64.40
2018-02-19T18:59:01.124Z,64.40
2018-02-19T19:01:31.275Z,64.20
2018-02-19T19:03:59.223Z,63.90
2018-02-19T19:06:27.152Z,63.70
2018-02-19T19:09:06.685Z,63.60
2018-02-19T19:11:36.613Z,63.90
2018-02-19T19:14:05.533Z,64.00
2018-02-19T19:16:33.948Z,64.60
2018-02-19T19:19:02.428Z,64.20
2018-02-19T19:21:31.581Z,64.90
2018-02-19T19:24:00.589Z,65.30
2018-02-19T19:26:28.543Z,65.10
2018-02-19T19:28:56.171Z,64.80
2018-02-19T19:31:24.443Z,64.70
2018-02-19T19:33:52.504Z,64.50
2018-02-19T19:36:20.065Z,64.50
2018-02-19T19:38:48.018Z,64.60
2018-02-19T19:41:17.266Z,65.30
2018-02-19T19:43:47.189Z,64.60
2018-02-19T19:46:17.245Z,64.90
2018-02-19T19:48:45.414Z,65.10
2018-02-19T19:51:13.010Z,65.40
2018-02-19T19:53:40.606Z,65.70
2018-02-19T19:56:08.562Z,65.70
2018-02-19T19:58:36.544Z,65.70
2018-02-19T20:01:04.040Z,65.30
2018-02-19T20:03:33.226Z,66.10
2018-02-19T20:06:02.990Z,66.40
2018-02-19T20:08:32.903Z,66.10
2018-02-19T20:11:00.467Z,66.80
2018-02-19T20:13:28.869Z,65.90
2018-02-19T20:15:56.496Z,76.60
2018-02-19T20:18:24.474Z,67.30
2018-02-19T20:20:54.152Z,67.80
2018-02-19T20:23:22.117Z,68.00
2018-02-19T20:25:50.804Z,68.20
2018-02-19T20:28:19.225Z,68.40
2018-02-19T20:30:46.760Z,68.90
2018-02-19T20:33:15.032Z,68.80
2018-02-19T20:35:46.793Z,68.50
2018-02-19T20:38:14.773Z,68.50
2018-02-19T20:40:47.260Z,69.10
2018-02-19T20:43:18.145Z,68.30
2018-02-19T20:45:47.101Z,68.70
2018-02-19T20:48:14.702Z,67.70
2018-02-19T20:50:44.202Z,67.50
2018-02-19T20:53:13.765Z,67.40
2018-02-19T20:55:41.315Z,67.40
2018-02-19T20:58:15.567Z,67.40
2018-02-19T21:00:43.594Z,67.40
2018-02-19T21:03:11.839Z,66.40
2018-02-19T21:05:43.612Z,68.20
2018-02-19T21:08:12.721Z,67.40
2018-02-19T21:10:40.966Z,67.40
2018-02-19T21:13:08.514Z,67.60
2018-02-19T21:15:37.094Z,67.80
2018-02-19T21:18:05.450Z,68.10
2018-02-19T21:20:33.839Z,67.50
2018-02-19T21:23:03.347Z,67.40
2018-02-19T21:25:32.707Z,67.70
2018-02-19T21:28:02.015Z,67.60
2018-02-19T21:30:29.644Z,85.00
2018-02-19T21:32:59.380Z,67.70
2018-02-19T21:35:27.865Z,77.70
2018-02-19T21:37:57.364Z,67.80
2018-02-19T21:40:28.480Z,67.80
2018-02-19T21:42:56.101Z,68.00
2018-02-19T21:45:24.464Z,68.70
2018-02-19T21:47:52.028Z,67.80
2018-02-19T21:50:23.729Z,68.60
2018-02-19T21:52:54.512Z,67.60
2018-02-19T21:55:23.622Z,67.80
2018-02-19T21:57:54.381Z,68.00
2018-02-19T22:00:25.757Z,67.80
2018-02-19T22:02:57.164Z,67.90
2018-02-19T22:05:27.253Z,67.60
2018-02-19T22:07:57.950Z,67.60
2018-02-19T22:10:27.798Z,67.90
2018-02-19T22:12:56.126Z,68.30
2018-02-19T22:15:24.492Z,68.60
2018-02-19T22:17:52.782Z,70.00
2018-02-19T22:20:23.105Z,69.00
2018-02-19T22:22:52.027Z,71.20
2018-02-19T22:25:20.592Z,69.00
2018-02-19T22:27:50.749Z,70.20
2018-02-19T22:30:20.479Z,69.60
2018-02-19T22:32:50.121Z,70.70
2018-02-19T22:35:17.795Z,69.70
2018-02-19T22:37:48.912Z,70.00
2018-02-19T22:40:18.039Z,70.20
2018-02-19T22:42:47.888Z,71.00
2018-02-19T22:45:16.343Z,70.30
2018-02-19T22:47:43.998Z,70.60
2018-02-19T22:50:13.386Z,81.10
2018-02-19T22:52:45.013Z,70.20
2018-02-19T22:55:14.730Z,69.90
2018-02-19T22:57:43.147Z,69.60
2018-02-19T23:00:13.863Z,69.40
2018-02-19T23:02:43.884Z,69.10
2018-02-19T23:05:16.255Z,69.10
2018-02-19T23:07:45.378Z,69.20
2018-02-19T23:10:15.243Z,69.20
2018-02-19T23:12:47.455Z,69.00
2018-02-19T23:15:15.343Z,69.30
2018-02-19T23:17:43.882Z,69.50
2018-02-19T23:20:13.113Z,69.20
2018-02-19T23:22:40.913Z,69.10
2018-02-19T23:25:10.288Z,69.90
2018-02-19T23:27:40.552Z,70.00
2018-02-19T23:30:08.164Z,69.20
2018-02-19T23:32:35.758Z,69.50
2018-02-19T23:35:05.203Z,70.40
2018-02-19T23:37:33.429Z,70.20
2018-02-19T23:40:01.020Z,70.50
2018-02-19T23:42:35.764Z,70.60
2018-02-19T23:45:03.332Z,70.30
2018-02-19T23:47:31.484Z,70.50
2018-02-19T23:49:59.425Z,70.70
2018-02-19T23:52:27.089Z,70.60
2018-02-19T23:54:54.625Z,70.20
2018-02-19T23:57:22.956Z,70.80
2018-02-19T23:59:51.311Z,70.20
